AMS weather

Amsterdam Airport Schiphol
Amsterdam, Noord-Holland, Netherlands

Public forecast

Using degrees Celsius for public forecast. Weather courtesy of forecast.io.

METAR (pilot weather report)

Retrieved 2017/11/19 16:25 UTC (27 minutes ago):

EHAM 191625Z 29012KT 9999 -SHRA FEW020CB 08/03 Q1019 NOSIG

TAF (pilot weather forecast)

Retrieved 2017/11/19 12:27 UTC (4 hours ago):

TAF TAF EHAM 191053Z 1912/2018 31017KT 9999 SCT025 PROB40 TEMPO 1912/1916 32018G28KT 7000 -SHRA SCT022CB BKN035 BECMG 1914/1917 30010KT BECMG 2001/2004 24007KT BECMG 2005/2008 19012KT 7000 -RA BKN018 BECMG 2009/2012 BKN012 TEMPO 2011/2018 4000 RADZ BKN008 BECMG 2014/2017 27015KT